createdAt,value
2022-11-05T00:01:14.370Z,16.92
2022-11-05T00:03:59.332Z,9.90
2022-11-05T00:06:44.439Z,12.65
2022-11-05T00:09:29.676Z,11.10
2022-11-05T00:12:20.432Z,17.00
2022-11-05T00:15:05.686Z,10.30
2022-11-05T00:17:32.363Z,10.25
2022-11-05T00:19:59.198Z,12.10
2022-11-05T00:22:47.383Z,10.60
2022-11-05T00:25:14.023Z,13.40
2022-11-05T00:27:51.603Z,11.80
2022-11-05T00:30:24.042Z,19.33
2022-11-05T00:32:52.417Z,14.35
2022-11-05T00:35:21.312Z,12.85
2022-11-05T00:37:50.383Z,12.50
2022-11-05T00:40:17.747Z,19.20
2022-11-05T00:43:03.022Z,15.32
2022-11-05T00:45:30.879Z,19.42
2022-11-05T00:48:16.279Z,15.07
2022-11-05T00:50:42.794Z,10.85
2022-11-05T00:53:09.505Z,19.70
2022-11-05T00:55:41.858Z,14.23
2022-11-05T00:58:12.070Z,14.07
2022-11-05T01:00:44.550Z,15.18
2022-11-05T01:03:14.229Z,16.42
2022-11-05T01:05:47.132Z,13.23
2022-11-05T01:08:14.767Z,13.32
2022-11-05T01:10:52.419Z,17.10
2022-11-05T01:13:22.163Z,13.00
2022-11-05T01:15:50.886Z,13.48
2022-11-05T01:18:18.912Z,8.40
2022-11-05T01:20:46.180Z,15.38
2022-11-05T01:23:13.876Z,11.77
2022-11-05T01:25:42.017Z,9.00
2022-11-05T01:28:09.621Z,12.70
2022-11-05T01:30:36.986Z,13.45
2022-11-05T01:33:03.578Z,11.60
2022-11-05T01:35:30.083Z,8.40
2022-11-05T01:37:56.487Z,11.27
2022-11-05T01:40:24.283Z,12.80
2022-11-05T01:42:51.002Z,16.08
2022-11-05T01:45:26.656Z,15.25
2022-11-05T01:48:03.076Z,10.10
2022-11-05T01:50:49.245Z,8.20
2022-11-05T01:53:26.974Z,10.07
2022-11-05T01:56:07.928Z,17.23
2022-11-05T01:58:59.455Z,8.98
2022-11-05T02:01:26.347Z,12.23
2022-11-05T02:03:57.959Z,16.90
2022-11-05T02:06:27.361Z,12.82
2022-11-05T02:09:15.819Z,12.88
2022-11-05T02:11:42.452Z,10.88
2022-11-05T02:14:08.858Z,12.13
2022-11-05T02:17:12.974Z,9.40
2022-11-05T02:20:09.397Z,10.95
2022-11-05T02:23:20.521Z,13.65
2022-11-05T02:26:24.739Z,11.32
2022-11-05T02:29:06.565Z,12.68
2022-11-05T02:31:39.631Z,14.52
2022-11-05T02:34:24.800Z,14.75
2022-11-05T02:37:13.051Z,12.20
2022-11-05T02:40:09.705Z,11.20
2022-11-05T02:42:48.614Z,10.90
2022-11-05T02:45:28.792Z,12.85
2022-11-05T02:48:07.637Z,13.15
2022-11-05T02:50:40.100Z,11.23
2022-11-05T02:53:45.111Z,14.20
2022-11-05T02:56:39.376Z,14.98
2022-11-05T02:59:05.858Z,13.68
2022-11-05T03:01:33.975Z,15.82
2022-11-05T03:04:06.654Z,10.77
2022-11-05T03:07:03.839Z,13.07
2022-11-05T03:09:47.147Z,15.07
2022-11-05T03:12:22.728Z,13.00
2022-11-05T03:15:15.475Z,9.35
2022-11-05T03:18:13.023Z,14.93
2022-11-05T03:20:51.554Z,8.38
2022-11-05T03:23:27.065Z,18.80
2022-11-05T03:26:06.538Z,15.90
2022-11-05T03:28:39.726Z,11.52
2022-11-05T03:31:07.876Z,21.67
2022-11-05T03:33:38.541Z,9.43
2022-11-05T03:36:13.847Z,20.00
2022-11-05T03:38:44.840Z,9.55
2022-11-05T03:41:15.156Z,14.88
2022-11-05T03:43:46.806Z,14.57
2022-11-05T03:46:24.624Z,15.70
2022-11-05T03:48:55.360Z,14.73
2022-11-05T03:51:46.607Z,13.75
2022-11-05T03:54:13.588Z,10.55
2022-11-05T03:56:52.079Z,15.23
2022-11-05T03:59:20.004Z,17.00
2022-11-05T04:01:47.828Z,14.63
2022-11-05T04:04:14.487Z,14.43
2022-11-05T04:06:59.690Z,18.95
2022-11-05T04:09:45.319Z,19.90
2022-11-05T04:12:30.065Z,16.52
2022-11-05T04:14:56.961Z,18.60
2022-11-05T04:17:23.317Z,17.55
2022-11-05T04:20:08.304Z,13.05
2022-11-05T04:22:54.721Z,13.00
2022-11-05T04:25:22.206Z,13.07
2022-11-05T04:27:48.699Z,10.65
2022-11-05T04:30:20.322Z,17.73
2022-11-05T04:33:05.391Z,13.43
2022-11-05T04:35:34.984Z,15.70
2022-11-05T04:38:02.423Z,22.38
2022-11-05T04:40:29.866Z,18.73
2022-11-05T04:42:57.092Z,16.17
2022-11-05T04:45:25.156Z,9.90
2022-11-05T04:47:53.347Z,16.92
2022-11-05T04:50:20.079Z,14.68
2022-11-05T04:52:46.509Z,15.32
2022-11-05T04:55:14.565Z,12.70
2022-11-05T04:57:41.113Z,18.65
2022-11-05T05:00:09.126Z,13.65
2022-11-05T05:02:36.532Z,12.77
2022-11-05T05:05:03.352Z,12.73
2022-11-05T05:07:29.793Z,10.52
2022-11-05T05:09:56.318Z,12.15
2022-11-05T05:12:23.074Z,16.30
2022-11-05T05:14:49.583Z,11.82
2022-11-05T05:17:16.581Z,26.95
2022-11-05T05:20:02.067Z,9.95
2022-11-05T05:22:29.213Z,14.93
2022-11-05T05:24:56.672Z,11.00
2022-11-05T05:27:24.064Z,18.48
2022-11-05T05:29:50.631Z,13.77
2022-11-05T05:32:17.263Z,15.02
2022-11-05T05:34:43.639Z,13.57
2022-11-05T05:37:10.233Z,10.70
2022-11-05T05:39:36.646Z,11.40
2022-11-05T05:42:03.101Z,14.40
2022-11-05T05:44:29.454Z,16.67
2022-11-05T05:46:55.887Z,10.18
2022-11-05T05:49:22.412Z,9.95
2022-11-05T05:51:49.728Z,10.45
2022-11-05T05:54:16.598Z,10.15
2022-11-05T05:56:44.289Z,11.23
2022-11-05T05:59:10.955Z,13.07
2022-11-05T06:01:37.693Z,17.02
2022-11-05T06:04:04.409Z,12.07
2022-11-05T06:06:31.113Z,11.80
2022-11-05T06:08:57.670Z,10.77
2022-11-05T06:11:24.972Z,12.77
2022-11-05T06:13:51.714Z,14.90
2022-11-05T06:16:19.434Z,13.77
2022-11-05T06:18:46.109Z,15.23
2022-11-05T06:21:14.824Z,9.70
2022-11-05T06:23:42.773Z,14.07
2022-11-05T06:26:15.692Z,14.10
2022-11-05T06:28:42.447Z,13.88
2022-11-05T06:31:10.879Z,12.75
2022-11-05T06:33:37.436Z,16.60
2022-11-05T06:36:05.917Z,14.73
2022-11-05T06:38:34.962Z,16.35
2022-11-05T06:41:07.235Z,13.60
2022-11-05T06:43:36.742Z,13.32
2022-11-05T06:46:03.394Z,14.50
2022-11-05T06:48:30.116Z,16.27
2022-11-05T06:50:56.504Z,17.05
2022-11-05T06:53:23.578Z,9.38
2022-11-05T06:55:50.013Z,13.60
2022-11-05T06:58:16.474Z,8.70
2022-11-05T07:00:43.027Z,13.45
2022-11-05T07:03:11.880Z,14.93
2022-11-05T07:05:42.139Z,18.55
2022-11-05T07:08:08.554Z,20.25
2022-11-05T07:10:34.965Z,16.80
2022-11-05T07:13:05.125Z,14.93
2022-11-05T07:15:34.529Z,12.00
2022-11-05T07:18:01.250Z,14.73
2022-11-05T07:20:33.580Z,13.55
2022-11-05T07:23:06.293Z,13.63
2022-11-05T07:25:33.849Z,12.60
2022-11-05T07:28:00.431Z,12.20
2022-11-05T07:30:28.298Z,13.05
2022-11-05T07:32:55.066Z,16.25
2022-11-05T07:35:21.464Z,15.68
2022-11-05T07:37:49.997Z,16.17
2022-11-05T07:40:19.328Z,12.25
2022-11-05T07:42:48.178Z,15.85
2022-11-05T07:45:15.550Z,12.13
2022-11-05T07:47:53.141Z,12.38
2022-11-05T07:50:21.945Z,10.45
2022-11-05T07:52:48.927Z,11.10
2022-11-05T07:55:16.044Z,12.60
2022-11-05T07:57:46.898Z,14.10
2022-11-05T08:00:16.116Z,9.93
2022-11-05T08:02:43.234Z,9.32
2022-11-05T08:05:10.572Z,10.43
2022-11-05T08:07:36.961Z,17.10
2022-11-05T08:10:04.267Z,16.08
2022-11-05T08:12:33.459Z,8.43
2022-11-05T08:14:59.817Z,15.63
2022-11-05T08:17:26.355Z,13.02
2022-11-05T08:19:52.718Z,13.02
2022-11-05T08:22:19.304Z,12.77
2022-11-05T08:24:45.708Z,11.98
2022-11-05T08:27:12.378Z,10.05
2022-11-05T08:29:38.882Z,15.23
2022-11-05T08:32:05.437Z,10.48
2022-11-05T08:34:31.903Z,15.70
2022-11-05T08:37:00.771Z,11.55
2022-11-05T08:39:27.543Z,13.65
2022-11-05T08:41:54.052Z,9.25
2022-11-05T08:44:20.528Z,8.65
2022-11-05T08:46:46.925Z,15.93
2022-11-05T08:49:13.295Z,14.45
2022-11-05T08:51:39.877Z,12.70
2022-11-05T08:54:06.637Z,11.98
2022-11-05T08:56:33.034Z,12.80
2022-11-05T08:59:00.746Z,14.30
2022-11-05T09:01:27.377Z,13.88
2022-11-05T09:03:54.215Z,7.78
2022-11-05T09:06:20.737Z,12.18
2022-11-05T09:08:47.330Z,11.20
2022-11-05T09:11:14.224Z,9.50
2022-11-05T09:13:40.707Z,9.07
2022-11-05T09:16:18.074Z,12.27
2022-11-05T09:18:44.523Z,13.32
2022-11-05T09:21:11.119Z,9.73
2022-11-05T09:23:37.654Z,9.27
2022-11-05T09:26:04.166Z,11.30
2022-11-05T09:28:32.301Z,9.70
2022-11-05T09:30:58.805Z,7.88
2022-11-05T09:33:26.771Z,12.02
2022-11-05T09:35:53.895Z,10.48
2022-11-05T09:38:20.492Z,10.57
2022-11-05T09:41:14.714Z,13.07
2022-11-05T09:43:49.037Z,11.70
2022-11-05T09:46:21.967Z,11.55
2022-11-05T09:48:55.427Z,8.82
2022-11-05T09:51:24.094Z,7.53
2022-11-05T09:53:51.046Z,12.15
2022-11-05T09:56:27.005Z,7.25
2022-11-05T09:59:05.143Z,11.60
2022-11-05T10:01:36.068Z,9.18
2022-11-05T10:04:09.918Z,7.28
2022-11-05T10:06:42.846Z,7.53
2022-11-05T10:09:19.094Z,8.30
2022-11-05T10:11:50.274Z,9.30
2022-11-05T10:14:23.771Z,10.70
2022-11-05T10:17:00.213Z,8.52
2022-11-05T10:19:41.557Z,6.57
2022-11-05T10:22:13.654Z,8.38
2022-11-05T10:24:43.796Z,11.18
2022-11-05T10:27:21.051Z,7.90
2022-11-05T10:29:48.592Z,10.98
2022-11-05T10:32:27.711Z,11.15
2022-11-05T10:34:58.267Z,5.95
2022-11-05T10:37:25.279Z,7.32
2022-11-05T10:39:51.758Z,7.57
2022-11-05T10:42:38.189Z,7.90
2022-11-05T10:45:20.451Z,5.55
2022-11-05T10:48:18.680Z,9.50
2022-11-05T10:50:45.722Z,9.32
2022-11-05T10:53:20.345Z,7.43
2022-11-05T10:55:49.399Z,9.85
2022-11-05T10:58:15.671Z,7.50
2022-11-05T11:00:58.430Z,11.60
2022-11-05T11:03:43.486Z,6.40
2022-11-05T11:06:26.488Z,9.52
2022-11-05T11:08:56.822Z,8.07
2022-11-05T11:11:34.167Z,8.75
2022-11-05T11:14:19.574Z,8.63
2022-11-05T11:16:48.275Z,6.32
2022-11-05T11:19:20.569Z,9.90
2022-11-05T11:21:47.561Z,5.70
2022-11-05T11:24:23.288Z,9.98
2022-11-05T11:26:49.735Z,7.40
2022-11-05T11:29:26.624Z,7.65
2022-11-05T11:31:55.756Z,17.35
2022-11-05T11:34:27.125Z,4.07
2022-11-05T11:37:06.179Z,7.55
2022-11-05T11:39:33.717Z,4.75
2022-11-05T11:42:12.817Z,6.85
2022-11-05T11:44:46.548Z,5.82
2022-11-05T11:47:16.720Z,7.03
2022-11-05T11:49:51.154Z,4.85
2022-11-05T11:52:33.640Z,2.90
2022-11-05T11:55:09.226Z,9.07
2022-11-05T11:57:44.591Z,5.05
2022-11-05T12:00:11.752Z,4.22
2022-11-05T12:03:00.506Z,6.57
2022-11-05T12:05:53.031Z,7.22
2022-11-05T12:08:45.014Z,6.22
2022-11-05T12:11:21.354Z,4.40
2022-11-05T12:14:12.292Z,7.82
2022-11-05T12:16:58.607Z,5.15
2022-11-05T12:19:59.290Z,7.82
2022-11-05T12:22:37.708Z,5.75
2022-11-05T12:25:22.716Z,8.60
2022-11-05T12:28:07.437Z,7.72
2022-11-05T12:30:48.721Z,6.90
2022-11-05T12:33:27.345Z,7.97
2022-11-05T12:36:11.727Z,7.05
2022-11-05T12:39:19.128Z,7.72
2022-11-05T12:42:00.679Z,9.35
2022-11-05T12:44:52.208Z,5.82
2022-11-05T12:47:38.827Z,8.07
2022-11-05T12:50:16.911Z,6.60
2022-11-05T12:52:49.158Z,7.30
2022-11-05T12:55:20.405Z,8.40
2022-11-05T12:57:51.531Z,8.98
2022-11-05T13:00:20.285Z,8.75
2022-11-05T13:03:04.589Z,8.52
2022-11-05T13:10:42.722Z,8.75
2022-11-05T13:13:24.338Z,9.57
2022-11-05T13:15:52.431Z,9.40
2022-11-05T13:18:27.744Z,7.13
2022-11-05T13:20:56.244Z,6.00
2022-11-05T13:23:35.126Z,9.90
2022-11-05T13:26:37.360Z,6.07
2022-11-05T13:29:20.280Z,7.82
2022-11-05T13:31:58.602Z,7.57
2022-11-05T13:34:25.056Z,7.78
2022-11-05T13:37:15.418Z,7.00
2022-11-05T13:39:47.078Z,6.38
2022-11-05T13:42:35.879Z,6.80
2022-11-05T13:45:24.107Z,7.32
2022-11-05T13:48:29.290Z,7.85
2022-11-05T13:51:20.737Z,10.48
2022-11-05T13:54:15.549Z,10.45
2022-11-05T13:57:06.038Z,8.85
2022-11-05T13:59:55.326Z,8.18
2022-11-05T14:02:25.746Z,7.13
2022-11-05T14:05:00.927Z,8.27
2022-11-05T14:07:31.401Z,8.02
2022-11-05T14:10:09.993Z,13.27
2022-11-05T14:12:39.838Z,9.20
2022-11-05T14:15:24.509Z,10.15
2022-11-05T14:18:03.198Z,9.98
2022-11-05T14:20:32.524Z,7.40
2022-11-05T14:23:17.401Z,9.07
2022-11-05T14:25:43.755Z,9.55
2022-11-05T14:28:36.644Z,8.48
2022-11-05T14:31:20.089Z,7.45
2022-11-05T14:34:01.942Z,11.60
2022-11-05T14:36:30.295Z,8.50
2022-11-05T14:39:12.029Z,8.50
2022-11-05T14:41:57.008Z,5.45
2022-11-05T14:44:25.468Z,8.75
2022-11-05T14:46:56.032Z,10.80
2022-11-05T14:49:27.271Z,7.75
2022-11-05T14:51:56.474Z,10.00
2022-11-05T14:54:43.905Z,12.18
2022-11-05T14:57:42.210Z,8.27
2022-11-05T15:00:36.439Z,9.20
2022-11-05T15:03:24.499Z,16.13
2022-11-05T15:05:52.313Z,8.75
2022-11-05T15:08:29.686Z,7.97
2022-11-05T15:11:25.292Z,14.07
2022-11-05T15:14:05.441Z,7.05
2022-11-05T15:16:43.595Z,11.00
2022-11-05T15:19:20.017Z,8.05
2022-11-05T15:21:46.854Z,10.48
2022-11-05T15:24:19.546Z,8.43
2022-11-05T15:26:56.212Z,7.43
2022-11-05T15:29:26.787Z,9.80
2022-11-05T15:31:53.694Z,7.78
2022-11-05T15:34:24.632Z,10.50
2022-11-05T15:37:03.253Z,10.13
2022-11-05T15:39:40.274Z,10.35
2022-11-05T15:42:13.829Z,9.07
2022-11-05T15:44:42.690Z,13.45
2022-11-05T15:47:16.790Z,8.82
2022-11-05T15:49:46.594Z,7.85
2022-11-05T15:52:18.550Z,11.73
2022-11-05T15:54:45.576Z,8.20
2022-11-05T15:57:25.336Z,10.32
2022-11-05T15:59:51.837Z,10.27
2022-11-05T16:02:34.922Z,12.25
2022-11-05T16:05:09.594Z,7.07
2022-11-05T16:07:35.974Z,11.43
2022-11-05T16:10:06.056Z,13.18
2022-11-05T16:12:36.708Z,12.85
2022-11-05T16:15:08.759Z,10.20
2022-11-05T16:17:52.291Z,7.80
2022-11-05T16:20:27.384Z,6.25
2022-11-05T16:22:57.308Z,7.72
2022-11-05T16:25:39.651Z,13.82
2022-11-05T16:28:27.412Z,11.65
2022-11-05T16:31:05.226Z,8.82
2022-11-05T16:33:34.949Z,10.88
2022-11-05T16:36:01.375Z,10.60
2022-11-05T16:38:27.946Z,11.45
2022-11-05T16:40:54.292Z,12.65
2022-11-05T16:43:25.343Z,13.18
2022-11-05T16:45:57.251Z,10.07
2022-11-05T16:48:24.329Z,14.10
2022-11-05T16:50:51.212Z,11.20
2022-11-05T16:53:18.221Z,15.52
2022-11-05T16:55:45.693Z,13.00
2022-11-05T16:58:19.787Z,10.68
2022-11-05T17:00:47.088Z,10.68
2022-11-05T17:03:13.584Z,13.75
2022-11-05T17:05:39.935Z,15.07
2022-11-05T17:08:06.458Z,15.30
2022-11-05T17:10:32.901Z,12.15
2022-11-05T17:12:59.234Z,12.48
2022-11-05T17:15:31.147Z,10.50
2022-11-05T17:17:58.702Z,10.52
2022-11-05T17:20:44.214Z,12.73
2022-11-05T17:23:16.652Z,11.73
2022-11-05T17:25:45.702Z,12.40
2022-11-05T17:28:12.976Z,12.15
2022-11-05T17:30:41.615Z,15.32
2022-11-05T17:33:11.131Z,16.33
2022-11-05T17:35:39.907Z,12.25
2022-11-05T17:38:06.463Z,10.05
2022-11-05T17:40:34.501Z,12.63
2022-11-05T17:43:00.871Z,13.32
2022-11-05T17:45:27.382Z,11.98
2022-11-05T17:47:53.847Z,12.70
2022-11-05T17:50:20.279Z,14.32
2022-11-05T17:52:46.833Z,13.70
2022-11-05T17:55:17.449Z,16.98
2022-11-05T17:57:48.961Z,15.55
2022-11-05T18:00:18.241Z,11.70
2022-11-05T18:02:45.955Z,14.18
2022-11-05T18:05:12.496Z,14.07
2022-11-05T18:07:39.038Z,15.32
2022-11-05T18:10:06.490Z,14.02
2022-11-05T18:12:33.235Z,11.63
2022-11-05T18:14:59.668Z,14.15
2022-11-05T18:17:26.014Z,18.65
2022-11-05T18:19:52.442Z,15.82
2022-11-05T18:22:19.437Z,18.30
2022-11-05T18:24:46.535Z,15.43
2022-11-05T18:27:13.074Z,17.95
2022-11-05T18:29:39.498Z,13.48
2022-11-05T18:32:06.328Z,16.08
2022-11-05T18:34:32.904Z,17.52
2022-11-05T18:36:59.233Z,18.45
2022-11-05T18:39:26.329Z,19.70
2022-11-05T18:41:52.681Z,16.25
2022-11-05T18:44:22.794Z,19.92
2022-11-05T18:46:57.978Z,13.40
2022-11-05T18:49:25.729Z,15.25
2022-11-05T18:51:52.081Z,10.82
2022-11-05T18:54:18.891Z,20.77
2022-11-05T18:56:45.700Z,19.98
2022-11-05T18:59:35.955Z,13.43
2022-11-05T19:02:01.244Z,17.00
2022-11-05T19:04:27.822Z,17.42
2022-11-05T19:06:54.315Z,16.02
2022-11-05T19:09:20.778Z,14.55
2022-11-05T19:11:47.443Z,15.85
2022-11-05T19:14:13.793Z,14.70
2022-11-05T19:16:40.354Z,16.45
2022-11-05T19:19:06.909Z,12.02
2022-11-05T19:21:33.466Z,11.02
2022-11-05T19:24:03.326Z,13.35
2022-11-05T19:26:29.918Z,11.45
2022-11-05T19:29:01.632Z,16.40
2022-11-05T19:31:29.079Z,10.43
2022-11-05T19:33:55.938Z,15.15
2022-11-05T19:36:24.110Z,15.82
2022-11-05T19:38:59.666Z,13.38
2022-11-05T19:41:27.108Z,14.98
2022-11-05T19:43:54.809Z,13.80
2022-11-05T19:46:23.067Z,14.88
2022-11-05T19:48:51.065Z,13.52
2022-11-05T19:51:21.466Z,14.57
2022-11-05T19:53:48.419Z,12.63
2022-11-05T19:56:18.112Z,14.75
2022-11-05T19:58:45.052Z,17.42
2022-11-05T20:01:13.901Z,14.95
2022-11-05T20:03:40.841Z,12.48
2022-11-05T20:06:12.573Z,14.38
2022-11-05T20:08:59.718Z,14.75
2022-11-05T20:11:26.802Z,15.95
2022-11-05T20:13:53.250Z,16.42
2022-11-05T20:16:22.418Z,18.60
2022-11-05T20:18:48.866Z,19.33
2022-11-05T20:21:15.677Z,21.83
2022-11-05T20:23:42.662Z,21.95
2022-11-05T20:26:10.338Z,20.23
2022-11-05T20:28:38.505Z,18.20
2022-11-05T20:31:15.995Z,18.80
2022-11-05T20:33:43.818Z,21.67
2022-11-05T20:36:14.211Z,18.48
2022-11-05T20:38:40.669Z,17.40
2022-11-05T20:41:09.129Z,20.13
2022-11-05T20:43:36.721Z,16.73
2022-11-05T20:46:03.942Z,21.13
2022-11-05T20:48:32.451Z,21.92
2022-11-05T20:51:00.225Z,16.63
2022-11-05T20:53:26.747Z,18.98
2022-11-05T20:55:53.191Z,24.02
2022-11-05T20:58:19.550Z,24.65
2022-11-05T21:00:51.518Z,21.15
2022-11-05T21:03:18.898Z,19.67
2022-11-05T21:05:50.233Z,21.42
2022-11-05T21:08:16.754Z,19.95
2022-11-05T21:10:50.041Z,16.27
2022-11-05T21:13:17.643Z,21.85
2022-11-05T21:15:50.054Z,23.70
2022-11-05T21:18:21.574Z,22.33
2022-11-05T21:20:48.409Z,19.98
2022-11-05T21:23:15.561Z,16.80
2022-11-05T21:25:43.048Z,16.50
2022-11-05T21:28:11.207Z,18.23
2022-11-05T21:30:41.382Z,19.27
2022-11-05T21:33:08.786Z,16.40
2022-11-05T21:35:40.328Z,17.08
2022-11-05T21:38:07.267Z,19.33
2022-11-05T21:40:33.824Z,21.50
2022-11-05T21:43:00.182Z,14.93
2022-11-05T21:45:26.708Z,18.88
2022-11-05T21:47:53.215Z,18.85
2022-11-05T21:50:21.918Z,18.52
2022-11-05T21:53:07.073Z,17.67
2022-11-05T21:55:52.004Z,23.23
2022-11-05T21:58:37.504Z,11.25
2022-11-05T22:01:03.957Z,16.25
2022-11-05T22:03:30.355Z,14.88
2022-11-05T22:05:57.203Z,19.95
2022-11-05T22:08:23.553Z,21.70
2022-11-05T22:10:50.014Z,17.98
2022-11-05T22:13:16.560Z,20.25
2022-11-05T22:15:42.928Z,15.70
2022-11-05T22:18:09.642Z,16.08
2022-11-05T22:20:38.719Z,16.23
2022-11-05T22:23:10.076Z,19.63
2022-11-05T22:25:37.917Z,17.88
2022-11-05T22:28:04.489Z,17.48
2022-11-05T22:30:35.326Z,12.50
2022-11-05T22:33:02.388Z,21.20
2022-11-05T22:35:29.121Z,15.27
2022-11-05T22:37:55.465Z,17.30
2022-11-05T22:40:24.013Z,18.90
2022-11-05T22:42:50.749Z,20.23
2022-11-05T22:45:17.156Z,15.80
2022-11-05T22:47:43.565Z,15.52
2022-11-05T22:50:10.358Z,16.75
2022-11-05T22:52:36.710Z,21.80
2022-11-05T22:55:05.075Z,24.20
2022-11-05T22:57:31.570Z,17.42
2022-11-05T22:59:58.011Z,15.77
2022-11-05T23:02:24.729Z,12.23
2022-11-05T23:04:52.005Z,14.23
2022-11-05T23:07:37.280Z,14.75
2022-11-05T23:10:22.687Z,9.15
2022-11-05T23:12:49.205Z,10.73
2022-11-05T23:15:34.629Z,13.07
2022-11-05T23:18:20.000Z,11.45
2022-11-05T23:21:04.931Z,14.02
2022-11-05T23:23:49.785Z,11.63
2022-11-05T23:26:34.929Z,13.77
2022-11-05T23:29:01.307Z,10.18
2022-11-05T23:31:46.265Z,10.82
2022-11-05T23:34:12.626Z,11.63
2022-11-05T23:36:57.609Z,13.50
2022-11-05T23:39:23.989Z,14.23
2022-11-05T23:42:08.761Z,14.75
2022-11-05T23:44:53.635Z,16.75
2022-11-05T23:47:38.476Z,31.88
2022-11-05T23:50:05.344Z,13.65
2022-11-05T23:52:31.699Z,12.82
2022-11-05T23:54:58.044Z,10.27
2022-11-05T23:57:24.448Z,9.18
2022-11-05T23:59:50.789Z,10.98
